Brookhaven Weather

Current Time: 21:12 Zulu

HWV METARs

Local Time Temperature Dew Point Wind Direction Wind Speed Wind Gust Sky Vis.
12/17/2017 8:56:00 PM 0.6° c -5.0° c 330° 5 kt - CLR 10.0 sm
12/17/2017 7:56:00 PM 0.6° c -5.6° c 320° 6 kt - CLR 10.0 sm
12/17/2017 6:56:00 PM 0.6° c -5.6° c 300° 7 kt - BKN 4400 ft AGL 10.0 sm
12/17/2017 5:56:00 PM 0.6° c -5.6° c 320° 7 kt - SCT 4300 ft AGL 10.0 sm

ISP TAF:

KISP 171959Z 1720/1818 VRB04KT P6SM FEW040 OVC150 
FM180200 VRB03KT P6SM SCT020 OVC080 
FM180600 VRB03KT P6SM BKN020 TEMPO 1806/1808 6SM -FZRASNPL SCT008 BKN012 
FM180800 VRB03KT P6SM BKN015 TEMPO 1808/1812 6SM -RA SCT008 BKN012 
FM181400 30007KT P6SM SCT020 BKN080
Weather data provided by aviationweather.gov. Pilots must verify weather before flying.